Terminal Aerodrome Forecast
Issued by NWS

Home | Current Version | Previous Version | Text Only | Print | Product List | Glossary Off
Versions: 1 2 3 4 5 6 7 8 9 10 11 12 13 14 15 16 17

000
FTUS43 KBIS 250500 RRA
TAFJMS
TAF
KJMS 250543Z 2506/2606 01008KT 1 1/2SM -SN BR OVC025
      TEMPO 2506/2509 3SM -SN BKN012 OVC018
     FM250900 36006KT 3SM BR VCSH SCT004 OVC010
      TEMPO 2509/2513 1SM BR BKN005
     FM251500 33005KT 3SM BR OVC009
     FM251800 26008KT P6SM OVC011
     FM252100 20011KT P6SM OVC018=

USA.gov is the U.S. government's official web portal to all federal, state and local government web resources and services.